createdAt,value
2022-12-12T00:00:41.402Z,-0.10
2022-12-12T00:03:08.312Z,-0.10
2022-12-12T00:05:35.238Z,0.00
2022-12-12T00:08:02.091Z,0.00
2022-12-12T00:10:29.038Z,-0.10
2022-12-12T00:12:55.809Z,0.00
2022-12-12T00:15:23.595Z,0.00
2022-12-12T00:17:50.385Z,0.10
2022-12-12T00:20:17.205Z,0.00
2022-12-12T00:22:44.316Z,0.00
2022-12-12T00:25:11.776Z,-0.10
2022-12-12T00:27:39.217Z,-0.10
2022-12-12T00:30:07.029Z,-0.10
2022-12-12T00:32:34.259Z,-0.20
2022-12-12T00:35:01.012Z,-0.20
2022-12-12T00:37:27.942Z,-0.10
2022-12-12T00:39:54.761Z,-0.20
2022-12-12T00:42:21.560Z,-0.20
2022-12-12T00:44:48.276Z,-0.20
2022-12-12T00:47:15.003Z,-0.10
2022-12-12T00:49:41.897Z,-0.20
2022-12-12T00:52:08.652Z,-0.10
2022-12-12T00:54:35.415Z,-0.20
2022-12-12T00:57:02.214Z,-0.10
2022-12-12T00:59:29.361Z,-0.20
2022-12-12T01:01:56.162Z,-0.20
2022-12-12T01:04:23.142Z,-0.20
2022-12-12T01:06:49.918Z,-0.20
2022-12-12T01:09:16.683Z,-0.20
2022-12-12T01:11:43.503Z,-0.20
2022-12-12T01:14:10.402Z,-0.20
2022-12-12T01:16:37.181Z,-0.20
2022-12-12T01:19:04.016Z,-0.20
2022-12-12T01:21:31.070Z,-0.30
2022-12-12T01:23:58.114Z,-0.20
2022-12-12T01:26:25.188Z,-0.20
2022-12-12T01:28:52.876Z,-0.30
2022-12-12T01:31:23.167Z,-0.30
2022-12-12T01:33:50.028Z,-0.30
2022-12-12T01:36:20.556Z,-0.30
2022-12-12T01:38:49.097Z,-0.40
2022-12-12T01:41:17.297Z,-0.40
2022-12-12T01:43:44.686Z,-0.40
2022-12-12T01:46:30.543Z,-0.40
2022-12-12T01:49:09.160Z,-0.50
2022-12-12T01:51:39.102Z,-0.40
2022-12-12T01:54:14.420Z,-0.40
2022-12-12T01:56:43.408Z,-0.50
2022-12-12T01:59:12.936Z,-0.50
2022-12-12T02:01:40.935Z,-0.50
2022-12-12T02:04:09.186Z,-0.50
2022-12-12T02:06:36.215Z,-0.50
2022-12-12T02:09:08.822Z,-0.60
2022-12-12T02:11:42.518Z,-0.60
2022-12-12T02:14:09.480Z,-0.50
2022-12-12T02:17:02.426Z,-0.50
2022-12-12T02:20:03.007Z,-0.50
2022-12-12T02:22:45.112Z,-0.50
2022-12-12T02:25:30.362Z,-0.60
2022-12-12T02:28:15.302Z,-0.60
2022-12-12T02:31:22.034Z,-0.70
2022-12-12T02:34:13.893Z,-0.70
2022-12-12T02:36:48.797Z,-0.70
2022-12-12T02:39:23.280Z,-0.70
2022-12-12T02:42:01.902Z,-0.70
2022-12-12T02:44:43.615Z,-0.70
2022-12-12T02:47:19.488Z,-0.80
2022-12-12T02:49:51.978Z,-0.80
2022-12-12T02:52:19.665Z,-0.80
2022-12-12T02:54:48.599Z,-0.80
2022-12-12T02:57:21.397Z,-0.70
2022-12-12T02:59:53.152Z,-0.70
2022-12-12T03:02:31.871Z,-0.80
2022-12-12T03:05:36.086Z,-0.80
2022-12-12T03:08:29.518Z,-0.80
2022-12-12T03:11:06.165Z,-0.80
2022-12-12T03:13:46.391Z,-0.80
2022-12-12T03:16:32.896Z,-0.80
2022-12-12T03:19:16.378Z,-0.80
2022-12-12T03:21:53.658Z,-0.80
2022-12-12T03:24:50.629Z,-0.90
2022-12-12T03:27:27.437Z,-0.90
2022-12-12T03:29:56.945Z,-0.90
2022-12-12T03:32:29.758Z,-1.00
2022-12-12T03:35:02.290Z,-0.90
2022-12-12T03:37:37.128Z,-1.00
2022-12-12T03:40:27.147Z,-0.90
2022-12-12T03:43:11.467Z,-0.90
2022-12-12T03:45:48.164Z,-0.90
2022-12-12T03:48:33.540Z,-0.90
2022-12-12T03:51:27.497Z,-0.90
2022-12-12T03:54:17.330Z,-1.00
2022-12-12T03:56:54.464Z,-1.00
2022-12-12T03:59:50.788Z,-1.00
2022-12-12T04:03:07.219Z,-1.00
2022-12-12T04:06:17.143Z,-0.90
2022-12-12T04:09:04.377Z,-1.00
2022-12-12T04:12:02.662Z,-1.00
2022-12-12T04:14:46.502Z,-1.00
2022-12-12T04:17:18.191Z,-1.10
2022-12-12T04:20:20.565Z,-1.00
2022-12-12T04:23:16.167Z,-1.10
2022-12-12T04:26:22.763Z,-1.00
2022-12-12T04:29:15.966Z,-1.10
2022-12-12T04:32:18.122Z,-1.10
2022-12-12T04:34:58.365Z,-1.10
2022-12-12T04:37:32.533Z,-1.10
2022-12-12T04:40:05.086Z,-1.10
2022-12-12T04:42:39.256Z,-1.10
2022-12-12T04:45:14.662Z,-1.10
2022-12-12T04:47:45.713Z,-1.10
2022-12-12T04:50:13.770Z,-1.10
2022-12-12T04:52:42.919Z,-1.10
2022-12-12T04:55:19.188Z,-1.10
2022-12-12T04:57:49.958Z,-1.10
2022-12-12T05:00:17.732Z,-1.20
2022-12-12T05:02:53.853Z,-1.10
2022-12-12T05:05:29.594Z,-1.20
2022-12-12T05:08:02.962Z,-1.10
2022-12-12T05:10:30.462Z,-1.10
2022-12-12T05:12:59.302Z,-1.10
2022-12-12T05:15:27.412Z,-1.10
2022-12-12T05:18:03.272Z,-1.10
2022-12-12T05:20:30.276Z,-1.10
2022-12-12T05:22:57.180Z,-1.10
2022-12-12T05:25:24.089Z,-1.10
2022-12-12T05:27:51.070Z,-1.10
2022-12-12T05:30:18.459Z,-1.10
2022-12-12T05:32:45.198Z,-1.10
2022-12-12T05:35:12.475Z,-1.10
2022-12-12T05:37:39.691Z,-1.10
2022-12-12T05:40:08.897Z,-1.20
2022-12-12T05:42:35.697Z,-1.20
2022-12-12T05:45:02.514Z,-1.20
2022-12-12T05:47:29.433Z,-1.20
2022-12-12T05:49:56.243Z,-1.20
2022-12-12T05:52:23.042Z,-1.20
2022-12-12T05:54:50.234Z,-1.10
2022-12-12T05:57:19.027Z,-1.20
2022-12-12T05:59:46.762Z,-1.20
2022-12-12T06:02:14.736Z,-1.20
2022-12-12T06:04:43.778Z,-1.20
2022-12-12T06:07:10.639Z,-1.20
2022-12-12T06:09:37.539Z,-1.10
2022-12-12T06:12:04.716Z,-1.20
2022-12-12T06:14:31.492Z,-1.20
2022-12-12T06:16:58.375Z,-1.20
2022-12-12T06:19:25.139Z,-1.20
2022-12-12T06:21:51.967Z,-1.20
2022-12-12T06:24:18.782Z,-1.20
2022-12-12T06:26:45.561Z,-1.20
2022-12-12T06:29:12.960Z,-1.20
2022-12-12T06:31:40.194Z,-1.20
2022-12-12T06:34:07.055Z,-1.20
2022-12-12T06:36:34.223Z,-1.20
2022-12-12T06:39:01.873Z,-1.20
2022-12-12T06:41:30.979Z,-1.10
2022-12-12T06:43:57.802Z,-1.10
2022-12-12T06:46:27.168Z,-1.20
2022-12-12T06:48:55.951Z,-1.20
2022-12-12T06:51:29.010Z,-1.20
2022-12-12T06:53:56.600Z,-1.20
2022-12-12T06:56:25.604Z,-1.30
2022-12-12T06:58:53.772Z,-1.30
2022-12-12T07:01:23.470Z,-1.20
2022-12-12T07:03:51.872Z,-1.30
2022-12-12T07:06:21.033Z,-1.30
2022-12-12T07:08:48.834Z,-1.30
2022-12-12T07:11:18.336Z,-1.30
2022-12-12T07:13:45.366Z,-1.40
2022-12-12T07:16:12.351Z,-1.40
2022-12-12T07:18:39.967Z,-1.40
2022-12-12T07:21:14.046Z,-1.40
2022-12-12T07:23:41.037Z,-1.40
2022-12-12T07:26:12.414Z,-1.50
2022-12-12T07:28:39.478Z,-1.50
2022-12-12T07:31:08.483Z,-1.50
2022-12-12T07:33:43.550Z,-1.60
2022-12-12T07:36:12.525Z,-1.60
2022-12-12T07:38:39.945Z,-1.60
2022-12-12T07:41:10.374Z,-1.60
2022-12-12T07:43:43.385Z,-1.60
2022-12-12T07:46:14.055Z,-1.60
2022-12-12T07:48:40.951Z,-1.60
2022-12-12T07:51:07.797Z,-1.70
2022-12-12T07:53:34.570Z,-1.70
2022-12-12T07:56:05.482Z,-1.60
2022-12-12T07:58:32.368Z,-1.60
2022-12-12T08:00:59.493Z,-1.60
2022-12-12T08:03:26.344Z,-1.50
2022-12-12T08:05:53.147Z,-1.50
2022-12-12T08:08:20.103Z,-1.60
2022-12-12T08:10:47.074Z,-1.60
2022-12-12T08:13:13.902Z,-1.70
2022-12-12T08:15:43.472Z,-1.60
2022-12-12T08:18:10.365Z,-1.50
2022-12-12T08:20:40.671Z,-1.60
2022-12-12T08:23:07.756Z,-1.50
2022-12-12T08:25:36.098Z,-1.60
2022-12-12T08:28:03.339Z,-1.60
2022-12-12T08:30:30.274Z,-1.50
2022-12-12T08:32:57.168Z,-1.50
2022-12-12T08:35:24.006Z,-1.50
2022-12-12T08:37:50.778Z,-1.40
2022-12-12T08:40:17.707Z,-1.50
2022-12-12T08:42:44.455Z,-1.50
2022-12-12T08:45:11.893Z,-1.50
2022-12-12T08:47:39.091Z,-1.50
2022-12-12T08:50:06.682Z,-1.50
2022-12-12T08:52:33.474Z,-1.50
2022-12-12T08:55:00.287Z,-1.50
2022-12-12T08:57:27.615Z,-1.30
2022-12-12T08:59:54.382Z,-1.20
2022-12-12T09:02:21.226Z,-1.10
2022-12-12T09:04:48.129Z,-1.20
2022-12-12T09:07:14.944Z,-1.20
2022-12-12T09:09:41.797Z,-1.30
2022-12-12T09:12:09.235Z,-1.20
2022-12-12T09:14:36.164Z,-1.10
2022-12-12T09:17:02.989Z,-1.10
2022-12-12T09:19:29.825Z,-1.10
2022-12-12T09:21:56.993Z,-1.10
2022-12-12T09:24:25.611Z,-0.90
2022-12-12T09:26:52.379Z,-1.00
2022-12-12T09:29:19.463Z,-0.90
2022-12-12T09:31:46.480Z,-0.80
2022-12-12T09:34:13.682Z,-0.70
2022-12-12T09:36:40.925Z,-0.70
2022-12-12T09:39:07.746Z,-0.70
2022-12-12T09:41:34.569Z,-0.70
2022-12-12T09:44:08.359Z,-0.70
2022-12-12T09:46:43.934Z,-0.60
2022-12-12T09:49:22.347Z,-0.60
2022-12-12T09:51:51.403Z,-0.60
2022-12-12T09:54:21.263Z,-0.60
2022-12-12T09:56:59.409Z,-0.70
2022-12-12T09:59:42.969Z,-0.60
2022-12-12T10:02:28.409Z,-0.50
2022-12-12T10:05:07.011Z,-0.30
2022-12-12T10:08:14.663Z,-0.30
2022-12-12T10:10:58.961Z,-0.30
2022-12-12T10:13:28.506Z,-0.20
2022-12-12T10:16:09.659Z,-0.20
2022-12-12T10:18:50.042Z,0.00
2022-12-12T10:21:26.327Z,0.00
2022-12-12T10:24:30.304Z,-0.10
2022-12-12T10:26:58.958Z,-0.10
2022-12-12T10:29:27.254Z,0.00
2022-12-12T10:32:34.860Z,0.00
2022-12-12T10:35:17.858Z,0.20
2022-12-12T10:38:18.252Z,0.20
2022-12-12T10:40:45.011Z,0.30
2022-12-12T10:43:27.211Z,0.40
2022-12-12T10:46:00.051Z,0.40
2022-12-12T10:48:29.571Z,0.40
2022-12-12T10:51:02.608Z,0.50
2022-12-12T10:53:30.325Z,0.60
2022-12-12T10:56:02.676Z,0.60
2022-12-12T10:58:37.969Z,0.50
2022-12-12T11:02:07.967Z,0.60
2022-12-12T11:04:22.008Z,0.70
2022-12-12T11:06:51.807Z,0.70
2022-12-12T11:09:24.840Z,1.00
2022-12-12T11:12:03.984Z,1.00
2022-12-12T11:15:01.030Z,1.20
2022-12-12T11:17:31.020Z,1.40
2022-12-12T11:20:00.043Z,1.30
2022-12-12T11:22:28.326Z,1.40
2022-12-12T11:24:55.224Z,1.30
2022-12-12T11:27:28.816Z,1.30
2022-12-12T11:30:01.014Z,1.50
2022-12-12T11:32:39.140Z,1.30
2022-12-12T11:35:21.864Z,1.10
2022-12-12T11:37:52.689Z,1.10
2022-12-12T11:40:29.102Z,1.10
2022-12-12T11:43:43.672Z,1.00
2022-12-12T11:46:16.284Z,1.00
2022-12-12T11:48:47.378Z,1.20
2022-12-12T11:51:29.860Z,1.20
2022-12-12T11:53:56.638Z,1.20
2022-12-12T11:56:23.468Z,1.30
2022-12-12T11:59:08.510Z,1.30
2022-12-12T12:01:41.278Z,1.40
2022-12-12T12:04:29.577Z,1.30
2022-12-12T12:07:17.471Z,1.10
2022-12-12T12:09:57.865Z,1.30
2022-12-12T12:12:50.663Z,1.30
2022-12-12T12:15:29.598Z,1.30
2022-12-12T12:18:04.405Z,1.50
2022-12-12T12:20:31.420Z,1.50
2022-12-12T12:23:24.119Z,1.50
2022-12-12T12:26:01.403Z,1.40
2022-12-12T12:28:59.842Z,1.30
2022-12-12T12:31:35.475Z,1.40
2022-12-12T12:34:15.335Z,1.20
2022-12-12T12:36:54.005Z,1.10
2022-12-12T12:39:58.463Z,1.20
2022-12-12T12:42:49.871Z,1.20
2022-12-12T12:45:39.768Z,1.30
2022-12-12T12:48:56.127Z,1.40
2022-12-12T12:51:39.125Z,1.40
2022-12-12T12:54:08.011Z,1.40
2022-12-12T12:56:48.230Z,1.30
2022-12-12T12:59:24.043Z,1.30
2022-12-12T13:01:53.651Z,1.30
2022-12-12T13:04:24.770Z,1.30
2022-12-12T13:07:04.539Z,1.30
2022-12-12T13:09:42.763Z,1.40
2022-12-12T13:12:28.929Z,1.40
2022-12-12T13:15:02.096Z,1.50
2022-12-12T13:18:12.385Z,1.40
2022-12-12T13:21:03.652Z,1.40
2022-12-12T13:23:47.242Z,1.40
2022-12-12T13:26:21.286Z,1.30
2022-12-12T13:29:13.125Z,1.30
2022-12-12T13:32:14.167Z,1.30
2022-12-12T13:34:55.431Z,1.30
2022-12-12T13:37:23.504Z,1.50
2022-12-12T13:40:01.802Z,1.40
2022-12-12T13:42:51.737Z,1.30
2022-12-12T13:45:46.394Z,1.20
2022-12-12T13:48:29.350Z,1.30
2022-12-12T13:51:34.812Z,1.40
2022-12-12T13:54:12.506Z,1.40
2022-12-12T13:56:52.557Z,1.40
2022-12-12T13:59:22.097Z,1.40
2022-12-12T14:01:50.888Z,1.30
2022-12-12T14:04:31.931Z,1.30
2022-12-12T14:07:17.119Z,1.30
2022-12-12T14:09:50.933Z,1.20
2022-12-12T14:12:32.123Z,1.20
2022-12-12T14:15:03.227Z,1.10
2022-12-12T14:17:38.390Z,1.10
2022-12-12T14:20:23.264Z,1.10
2022-12-12T14:22:50.042Z,1.10
2022-12-12T14:25:29.015Z,1.00
2022-12-12T14:28:15.808Z,1.00
2022-12-12T14:31:03.205Z,0.90
2022-12-12T14:33:47.445Z,0.80
2022-12-12T14:36:17.297Z,0.80
2022-12-12T14:39:01.128Z,0.80
2022-12-12T14:41:39.256Z,0.70
2022-12-12T14:44:38.097Z,0.70
2022-12-12T14:47:09.969Z,0.70
2022-12-12T14:49:36.798Z,0.60
2022-12-12T14:52:03.964Z,0.60
2022-12-12T14:54:31.386Z,0.60
2022-12-12T14:56:59.119Z,0.60
2022-12-12T14:59:41.134Z,0.60
2022-12-12T15:02:24.743Z,0.50
2022-12-12T15:05:00.871Z,0.50
2022-12-12T15:07:33.738Z,0.50
2022-12-12T15:10:00.957Z,0.50
2022-12-12T15:12:34.109Z,0.50
2022-12-12T15:15:01.779Z,0.50
2022-12-12T15:17:32.706Z,0.50
2022-12-12T15:20:06.030Z,0.60
2022-12-12T15:22:37.920Z,0.60
2022-12-12T15:25:17.775Z,0.60
2022-12-12T15:27:53.842Z,0.70
2022-12-12T15:30:41.189Z,0.70
2022-12-12T15:33:17.520Z,0.70
2022-12-12T15:36:01.456Z,0.70
2022-12-12T15:38:29.328Z,0.70
2022-12-12T15:40:59.143Z,0.70
2022-12-12T15:43:30.899Z,0.60
2022-12-12T15:46:06.902Z,0.60
2022-12-12T15:48:33.724Z,0.50
2022-12-12T15:51:07.090Z,0.50
2022-12-12T15:53:40.612Z,0.50
2022-12-12T15:56:11.861Z,0.50
2022-12-12T15:58:43.918Z,0.50
2022-12-12T16:01:20.417Z,0.50
2022-12-12T16:04:04.382Z,0.50
2022-12-12T16:06:34.584Z,0.50
2022-12-12T16:09:07.523Z,0.50
2022-12-12T16:11:46.124Z,0.50
2022-12-12T16:14:27.963Z,0.40
2022-12-12T16:17:02.788Z,0.40
2022-12-12T16:19:32.613Z,0.30
2022-12-12T16:22:13.427Z,0.40
2022-12-12T16:24:49.786Z,0.30
2022-12-12T16:27:17.592Z,0.40
2022-12-12T16:29:45.288Z,0.40
2022-12-12T16:32:18.470Z,0.40
2022-12-12T16:34:45.394Z,0.40
2022-12-12T16:37:14.453Z,0.40
2022-12-12T16:39:41.481Z,0.50
2022-12-12T16:42:13.927Z,0.40
2022-12-12T16:44:44.754Z,0.50
2022-12-12T16:47:19.983Z,0.40
2022-12-12T16:49:47.273Z,0.50
2022-12-12T16:52:16.044Z,0.50
2022-12-12T16:54:46.890Z,0.50
2022-12-12T16:57:18.087Z,0.50
2022-12-12T16:59:44.900Z,0.40
2022-12-12T17:02:25.768Z,0.40
2022-12-12T17:04:52.774Z,0.30
2022-12-12T17:07:19.863Z,0.30
2022-12-12T17:09:46.703Z,0.30
2022-12-12T17:12:15.353Z,0.30
2022-12-12T17:14:55.245Z,0.20
2022-12-12T17:17:22.088Z,0.20
2022-12-12T17:19:48.945Z,0.10
2022-12-12T17:22:15.796Z,0.10
2022-12-12T17:24:45.158Z,0.00
2022-12-12T17:27:14.931Z,-0.10
2022-12-12T17:29:41.812Z,-0.10
2022-12-12T17:32:08.591Z,-0.30
2022-12-12T17:34:35.583Z,-0.30
2022-12-12T17:37:02.561Z,-0.30
2022-12-12T17:39:29.396Z,-0.50
2022-12-12T17:41:56.273Z,-0.50
2022-12-12T17:44:24.133Z,-0.60
2022-12-12T17:46:51.031Z,-0.60
2022-12-12T17:49:20.037Z,-0.50
2022-12-12T17:51:49.282Z,-0.70
2022-12-12T17:54:16.117Z,-0.70
2022-12-12T17:56:43.090Z,-0.70
2022-12-12T17:59:09.892Z,-0.80
2022-12-12T18:01:37.115Z,-0.80
2022-12-12T18:04:05.195Z,-0.70
2022-12-12T18:06:35.022Z,-0.80
2022-12-12T18:09:03.048Z,-0.80
2022-12-12T18:11:33.012Z,-0.80
2022-12-12T18:14:04.512Z,-0.80
2022-12-12T18:16:32.276Z,-0.80
2022-12-12T18:18:59.929Z,-0.80
2022-12-12T18:24:21.293Z,-0.80
2022-12-12T18:26:55.538Z,-0.80
2022-12-12T18:29:23.240Z,-0.90
2022-12-12T18:31:50.444Z,-0.90
2022-12-12T18:34:17.582Z,-0.90
2022-12-12T18:36:44.380Z,-0.90
2022-12-12T18:39:11.689Z,-0.90
2022-12-12T18:41:38.858Z,-1.00
2022-12-12T18:44:07.866Z,-1.10
2022-12-12T18:46:41.947Z,-1.10
2022-12-12T18:49:11.074Z,-1.10
2022-12-12T18:51:38.049Z,-1.10
2022-12-12T18:54:10.862Z,-1.10
2022-12-12T18:56:41.503Z,-1.10
2022-12-12T18:59:08.295Z,-1.10
2022-12-12T19:01:36.212Z,-1.10
2022-12-12T19:04:12.212Z,-1.00
2022-12-12T19:06:41.837Z,-0.90
2022-12-12T19:09:13.101Z,-0.90
2022-12-12T19:11:40.514Z,-0.80
2022-12-12T19:14:09.257Z,-0.80
2022-12-12T19:16:36.581Z,-0.90
2022-12-12T19:19:09.532Z,-1.00
2022-12-12T19:21:37.694Z,-0.90
2022-12-12T19:24:11.654Z,-1.00
2022-12-12T19:26:40.789Z,-1.10
2022-12-12T19:29:11.235Z,-1.20
2022-12-12T19:31:39.352Z,-1.20
2022-12-12T19:34:08.141Z,-1.20
2022-12-12T19:36:36.245Z,-1.20
2022-12-12T19:39:06.181Z,-1.30
2022-12-12T19:41:35.607Z,-1.20
2022-12-12T19:44:03.311Z,-1.30
2022-12-12T19:46:31.771Z,-1.40
2022-12-12T19:49:04.321Z,-1.40
2022-12-12T19:51:36.540Z,-1.50
2022-12-12T19:54:07.959Z,-1.50
2022-12-12T19:56:36.382Z,-1.60
2022-12-12T19:59:04.484Z,-1.60
2022-12-12T20:01:33.959Z,-1.60
2022-12-12T20:04:06.510Z,-1.60
2022-12-12T20:06:41.331Z,-1.60
2022-12-12T20:09:09.991Z,-1.70
2022-12-12T20:11:38.567Z,-1.80
2022-12-12T20:14:06.558Z,-1.70
2022-12-12T20:16:33.823Z,-1.80
2022-12-12T20:19:01.769Z,-1.30
2022-12-12T20:24:24.117Z,-1.80
2022-12-12T20:26:53.355Z,-1.90
2022-12-12T20:29:21.763Z,-2.00
2022-12-12T20:31:49.824Z,-2.00
2022-12-12T20:34:18.697Z,-2.10
2022-12-12T20:36:45.611Z,-2.20
2022-12-12T20:39:19.366Z,-2.20
2022-12-12T20:41:46.301Z,-2.10
2022-12-12T20:44:13.787Z,-2.10
2022-12-12T20:46:44.112Z,-2.00
2022-12-12T20:49:18.461Z,-2.00
2022-12-12T20:51:55.230Z,-1.90
2022-12-12T20:54:24.799Z,-2.00
2022-12-12T20:56:52.878Z,-2.10
2022-12-12T20:59:20.193Z,-2.10
2022-12-12T21:01:47.478Z,-2.10
2022-12-12T21:04:14.667Z,-2.20
2022-12-12T21:06:44.776Z,-2.30
2022-12-12T21:09:17.759Z,-2.30
2022-12-12T21:11:48.872Z,-2.30
2022-12-12T21:14:16.097Z,-2.30
2022-12-12T21:16:43.699Z,-2.40
2022-12-12T21:19:14.826Z,-2.40
2022-12-12T21:21:44.034Z,-2.40
2022-12-12T21:24:17.323Z,-2.50
2022-12-12T21:26:45.143Z,-2.50
2022-12-12T21:29:12.753Z,-2.50
2022-12-12T21:31:49.771Z,-2.60
2022-12-12T21:34:18.768Z,-2.60
2022-12-12T21:36:46.547Z,-2.50
2022-12-12T21:39:14.431Z,-2.50
2022-12-12T21:41:44.164Z,-2.60
2022-12-12T21:44:11.216Z,-2.50
2022-12-12T21:46:41.708Z,-2.60
2022-12-12T21:49:27.779Z,-2.60
2022-12-12T21:52:06.229Z,-2.70
2022-12-12T21:54:33.829Z,-2.70
2022-12-12T21:57:02.507Z,-2.70
2022-12-12T21:59:30.304Z,-2.70
2022-12-12T22:01:59.016Z,-2.70
2022-12-12T22:04:26.558Z,-2.80
2022-12-12T22:06:53.407Z,-2.80
2022-12-12T22:09:20.742Z,-2.90
2022-12-12T22:11:49.936Z,-2.90
2022-12-12T22:14:21.055Z,-2.80
2022-12-12T22:16:48.477Z,-2.80
2022-12-12T22:19:16.399Z,-2.80
2022-12-12T22:21:45.537Z,-2.80
2022-12-12T22:24:12.401Z,-2.80
2022-12-12T22:26:41.559Z,-2.90
2022-12-12T22:29:11.793Z,-2.90
2022-12-12T22:31:39.608Z,-2.90
2022-12-12T22:34:15.801Z,-2.80
2022-12-12T22:36:43.525Z,-2.90
2022-12-12T22:39:18.803Z,-3.00
2022-12-12T22:41:46.449Z,-2.90
2022-12-12T22:44:18.194Z,-3.00
2022-12-12T22:46:46.665Z,-3.00
2022-12-12T22:49:20.075Z,-3.00
2022-12-12T22:51:48.829Z,-3.00
2022-12-12T22:54:16.078Z,-3.00
2022-12-12T22:56:43.517Z,-3.00
2022-12-12T22:59:12.810Z,-3.10
2022-12-12T23:01:39.947Z,-3.20
2022-12-12T23:04:07.407Z,-3.20
2022-12-12T23:06:35.971Z,-3.20
2022-12-12T23:09:06.774Z,-3.30
2022-12-12T23:11:34.976Z,-3.30
2022-12-12T23:14:06.704Z,-3.20
2022-12-12T23:16:37.648Z,-3.30
2022-12-12T23:19:06.499Z,-3.30
2022-12-12T23:21:34.918Z,-3.30
2022-12-12T23:24:02.160Z,-3.40
2022-12-12T23:26:31.186Z,-3.30
2022-12-12T23:28:59.794Z,-3.40
2022-12-12T23:31:29.507Z,-3.30
2022-12-12T23:33:59.042Z,-3.40
2022-12-12T23:36:26.756Z,-3.40
2022-12-12T23:38:58.097Z,-3.40
2022-12-12T23:41:25.401Z,-3.50
2022-12-12T23:43:52.911Z,-3.50
2022-12-12T23:46:29.846Z,-3.50
2022-12-12T23:48:57.240Z,-3.60
2022-12-12T23:51:25.115Z,-3.60
2022-12-12T23:53:52.136Z,-3.70
2022-12-12T23:56:19.173Z,-3.70
2022-12-12T23:58:45.991Z,-3.70
